Alpena, Michigan
Current Conditions -  °F | °C
As of 4:25 PM on Sunday 21 Dec 2014 (Local Time) from KAPN Reporting Station
Haze Haze  
Wind Chill: -5°   Ceiling: 5000
Heat Index: -1°   Visibility: 5mi
Dew Point: -2°   Wind: 9mph
Humidity: 89%   Direction: 170°S
Pressure: 30.19"   Gusts: NA
Location:  45.06°N, 83.44°W
Report Text: KAPN 212125Z AUTO 17008KT 5SM BR SCT009 OVC050 M01/M02 A3019 RMK AO2 T10061022
Loading
Personal Weather Stations






























Interactive Weather Map New forecast layout! Learn more

10-Day Weather Forecast

Advertisements
Track Severe Weather on mobile